This is the latest recevied weather packets stored in our database for station/object KY0TEQ-13. If no packets are shown the sender has not sent any weather packets the latest 10 day(s).
| Time | Temp. | Humidity | Pressure | Rain* | Wind** | Luminosity | Snow |
|---|---|---|---|---|---|---|---|
| 1777783325 | 5.56° C | 39% | 1306.8 hPa | 0 mm | - | 0 W/m² | - |
| 1777783021 | 5° C | 40% | 1306.7 hPa | 0 mm | - | 0 W/m² | - |
| 1777782719 | 5° C | 41% | 1306.8 hPa | 0 mm | - | 0 W/m² | - |
| 1777782414 | 5° C | 40% | 1306.8 hPa | 0 mm | - | 0 W/m² | - |
| 1777782111 | 5° C | 41% | 1306.6 hPa | 0 mm | - | 0 W/m² | - |
| 1777781807 | 5° C | 40% | 1306.6 hPa | 0 mm | - | 0 W/m² | - |
| 1777781505 | 4.44° C | 41% | 1306.7 hPa | 0 mm | - | 0 W/m² | - |
| 1777781201 | 4.44° C | 42% | 1306.5 hPa | 0 mm | - | 0 W/m² | - |
| 1777780894 | 5° C | 40% | 1306.5 hPa | 0 mm | - | 0 W/m² | - |
| 1777780590 | 5° C | 40% | 1306.3 hPa | 0 mm | - | 0 W/m² | - |
| 1777780288 | 5° C | 38% | 1306.3 hPa | 0 mm | - | 0 W/m² | - |
| 1777779985 | 5° C | 40% | 1306.5 hPa | 0 mm | - | 0 W/m² | - |
| 1777779682 | 6.67° C | 36% | 1306.2 hPa | 0 mm | - | 0 W/m² | - |
| 1777779379 | 6.67° C | 33% | 1306.2 hPa | 0 mm | - | 0 W/m² | - |
| 1777779077 | 8.33° C | 31% | 1306.2 hPa | 0 mm | - | 0 W/m² | - |
| 1777778775 | 8.89° C | 29% | 1306.1 hPa | 0 mm | - | 0 W/m² | - |
| 1777778473 | 8.89° C | 29% | 1306.2 hPa | 0 mm | - | 0 W/m² | - |
| 1777778170 | 8.89° C | 28% | 1306 hPa | 0 mm | - | 0 W/m² | - |
| 1777777868 | 8.89° C | 29% | 1306 hPa | 0 mm | - | 0 W/m² | - |
| 1777777564 | 9.44° C | 29% | 1305.8 hPa | 0 mm | - | 0 W/m² | - |
| 1777777261 | 10° C | 27% | 1305.4 hPa | 0 mm | - | 0 W/m² | - |
| 1777776957 | 10° C | 27% | 1305.8 hPa | 0 mm | - | 0 W/m² | - |
| 1777776655 | 10.56° C | 26% | 1305.6 hPa | 0 mm | - | 0 W/m² | - |
| 1777776351 | 10.56° C | 26% | 1305.5 hPa | 0 mm | - | 0 W/m² | - |
| 1777776049 | 11.11° C | 25% | 1305.6 hPa | 0 mm | - | 0 W/m² | - |
* Rain latest hour (hover to see other rain measurements)
** Current wind speed in m/s (hover to see current wind gust speed)